createdAt,value
2018-04-12T00:00:54.158Z,17.6
2018-04-12T00:06:44.820Z,17.87
2018-04-12T00:12:35.503Z,18.28
2018-04-12T00:18:26.151Z,12.14
2018-04-12T00:24:16.836Z,16.79
2018-04-12T00:30:07.514Z,19.09
2018-04-12T00:35:58.207Z,14.43
2018-04-12T00:41:48.880Z,28.82
2018-04-12T00:47:39.557Z,16.78
2018-04-12T00:53:30.231Z,19.52
2018-04-12T00:59:20.912Z,14.77
2018-04-12T01:05:11.573Z,29.91
2018-04-12T01:11:02.229Z,20.96
2018-04-12T01:16:52.914Z,15.25
2018-04-12T01:22:43.589Z,20.52
2018-04-12T01:28:34.285Z,20.45
2018-04-12T01:34:24.932Z,21.13
2018-04-12T01:40:15.603Z,19.43
2018-04-12T01:46:06.262Z,17.25
2018-04-12T01:51:56.933Z,23.42
2018-04-12T01:57:47.676Z,23
2018-04-12T02:03:38.277Z,21.05
2018-04-12T02:09:29.026Z,13.58
2018-04-12T02:15:19.628Z,18.11
2018-04-12T02:21:10.330Z,17.7
2018-04-12T02:27:01.027Z,20.84
2018-04-12T02:32:51.657Z,19.19
2018-04-12T02:38:42.316Z,16.94
2018-04-12T02:44:32.987Z,17.13
2018-04-12T02:50:23.658Z,21.64
2018-04-12T02:56:14.380Z,17.17
2018-04-12T03:02:05.113Z,19.45
2018-04-12T03:07:55.650Z,20.64
2018-04-12T03:13:46.341Z,19.43
2018-04-12T03:19:37.015Z,16.93
2018-04-12T03:25:27.686Z,16.47
2018-04-12T03:31:18.328Z,23.33
2018-04-12T03:37:09.064Z,21.54
2018-04-12T03:42:59.704Z,16.83
2018-04-12T03:48:50.437Z,15.61
2018-04-12T03:54:41.060Z,15.81
2018-04-12T04:00:31.744Z,22.53
2018-04-12T04:06:22.389Z,23.58
2018-04-12T04:12:13.131Z,20.97
2018-04-12T04:18:03.756Z,31.84
2018-04-12T04:23:54.413Z,23.92
2018-04-12T04:29:45.074Z,16.98
2018-04-12T04:35:35.814Z,21.17
2018-04-12T04:41:26.470Z,19.54
2018-04-12T04:47:17.195Z,20.5
2018-04-12T04:53:07.766Z,20.62
2018-04-12T04:58:58.470Z,16.51
2018-04-12T05:04:49.103Z,22.05
2018-04-12T05:10:39.782Z,21.04
2018-04-12T05:16:30.476Z,23.07
2018-04-12T05:22:21.105Z,18.44
2018-04-12T05:28:11.833Z,18.42
2018-04-12T05:34:02.456Z,20.01
2018-04-12T05:39:53.226Z,17.77
2018-04-12T05:45:43.791Z,15.46
2018-04-12T05:51:34.473Z,16.57
2018-04-12T05:57:25.142Z,17.78
2018-04-12T06:03:15.833Z,25.63
2018-04-12T06:09:06.478Z,22.33
2018-04-12T06:14:57.205Z,19.95
2018-04-12T06:20:47.845Z,23.59
2018-04-12T06:26:38.520Z,23.94
2018-04-12T06:32:29.197Z,31.86
2018-04-12T06:38:19.856Z,21.85
2018-04-12T06:44:10.552Z,19.55
2018-04-12T06:50:01.224Z,16.68
2018-04-12T06:55:51.844Z,17.99
2018-04-12T07:01:42.564Z,15.94
2018-04-12T07:07:33.171Z,19.13
2018-04-12T07:13:23.851Z,23.92
2018-04-12T07:19:14.598Z,31.51
2018-04-12T07:25:05.240Z,22.25
2018-04-12T07:30:55.953Z,27.39
2018-04-12T07:36:46.526Z,15.17
2018-04-12T07:42:37.212Z,12.6
2018-04-12T07:48:27.988Z,17.69
2018-04-12T07:54:18.573Z,16.42
2018-04-12T08:00:09.304Z,18.51
2018-04-12T08:05:59.946Z,19.87
2018-04-12T08:11:50.592Z,21.87
2018-04-12T08:17:41.268Z,39.87
2018-04-12T08:23:31.997Z,146.23
2018-04-12T08:29:22.621Z,61.44
2018-04-12T08:35:13.296Z,42.6
2018-04-12T08:41:03.931Z,32.82
2018-04-12T08:46:54.622Z,33.69
2018-04-12T08:52:45.282Z,35.18
2018-04-12T08:58:35.958Z,41.09
2018-04-12T09:04:26.700Z,47.7
2018-04-12T09:10:17.357Z,26.23
2018-04-12T09:16:08.004Z,39.1
2018-04-12T09:21:58.687Z,29.68
2018-04-12T09:27:49.380Z,25.64
2018-04-12T09:33:40.058Z,50.23
2018-04-12T09:39:30.708Z,34.55
2018-04-12T09:45:21.393Z,24.88
2018-04-12T09:51:12.075Z,30.55
2018-04-12T09:57:02.725Z,26.36
2018-04-12T10:02:53.431Z,21.04
2018-04-12T10:08:44.188Z,21
2018-04-12T10:14:34.815Z,9.12
2018-04-12T10:20:25.471Z,7.84
2018-04-12T10:26:16.164Z,10.91
2018-04-12T10:32:06.875Z,8.55
2018-04-12T10:37:57.513Z,13.34
2018-04-12T10:43:48.211Z,9.83
2018-04-12T10:49:38.843Z,9.52
2018-04-12T10:55:29.581Z,7.07
2018-04-12T11:01:20.299Z,18.21
2018-04-12T11:07:10.935Z,6.98
2018-04-12T11:13:01.708Z,9.31
2018-04-12T11:18:52.302Z,7.23
2018-04-12T11:24:43.003Z,12.91
2018-04-12T11:30:33.704Z,10.17
2018-04-12T11:36:24.378Z,7.42
2018-04-12T11:42:15.101Z,10.39
2018-04-12T11:48:05.770Z,12.19
2018-04-12T11:53:56.472Z,10.62
2018-04-12T11:59:47.207Z,8.32
2018-04-12T12:05:37.949Z,12.2
2018-04-12T12:11:28.573Z,11.04
2018-04-12T12:17:19.284Z,7.72
2018-04-12T12:23:09.927Z,9.88
2018-04-12T12:29:00.669Z,6.75
2018-04-12T12:34:51.416Z,7.11
2018-04-12T12:40:42.085Z,7.43
2018-04-12T12:46:32.768Z,6.06
2018-04-12T12:52:23.553Z,7.05
2018-04-12T12:58:14.150Z,6.32
2018-04-12T13:04:05.567Z,7.47
2018-04-12T13:09:55.593Z,11.2
2018-04-12T13:15:46.318Z,5.04
2018-04-12T13:21:36.977Z,7.18
2018-04-12T13:27:27.779Z,8.94
2018-04-12T13:33:18.451Z,7.52
2018-04-12T13:39:09.115Z,10.28
2018-04-12T13:44:59.749Z,11.24
2018-04-12T13:50:50.454Z,4.39
2018-04-12T13:56:41.221Z,7.54
2018-04-12T14:02:31.949Z,10.09
2018-04-12T14:08:22.611Z,16.25
2018-04-12T14:14:13.272Z,13.49
2018-04-12T14:20:03.995Z,15.48
2018-04-12T14:25:54.657Z,12.4
2018-04-12T14:31:45.357Z,9.99
2018-04-12T14:37:36.097Z,8.76
2018-04-12T14:43:26.825Z,10.54
2018-04-12T14:49:17.444Z,14.88
2018-04-12T14:55:08.180Z,6.24
2018-04-12T15:00:58.853Z,9.34
2018-04-12T15:06:49.567Z,12.42
2018-04-12T15:12:40.354Z,10.49
2018-04-12T15:18:30.954Z,21
2018-04-12T15:24:21.666Z,10.67
2018-04-12T15:30:12.395Z,13.28
2018-04-12T15:36:03.064Z,479.25
2018-04-12T15:41:53.751Z,875.58
2018-04-12T15:47:44.460Z,795.62
2018-04-12T15:53:35.141Z,255.95
2018-04-12T15:59:25.813Z,46.13
2018-04-12T16:05:16.549Z,422.73
2018-04-12T16:11:07.215Z,19.99
2018-04-12T16:16:57.905Z,35.05
2018-04-12T16:22:48.550Z,181.48
2018-04-12T16:28:39.351Z,848.5
2018-04-12T16:34:29.928Z,350.84
2018-04-12T16:40:20.635Z,28.44
2018-04-12T16:46:11.323Z,52.45
2018-04-12T16:52:02.008Z,12.64
2018-04-12T16:57:52.678Z,15.7
2018-04-12T17:03:43.369Z,14.81
2018-04-12T17:09:34.033Z,7.29
2018-04-12T17:15:24.743Z,9.75
2018-04-12T17:21:15.450Z,11.33
2018-04-12T17:27:06.041Z,11.52
2018-04-12T17:32:56.742Z,16.12
2018-04-12T17:38:47.369Z,16.55
2018-04-12T17:44:38.092Z,15.79
2018-04-12T17:50:28.776Z,16.85
2018-04-12T17:56:19.440Z,14.36
2018-04-12T18:02:10.116Z,10.3
2018-04-12T18:08:00.788Z,22.59
2018-04-12T18:13:51.502Z,14.77
2018-04-12T18:19:42.140Z,14.44
2018-04-12T18:25:32.775Z,21.09
2018-04-12T18:31:23.480Z,9.07
2018-04-12T18:37:14.162Z,55.61
2018-04-12T18:43:04.822Z,45.92
2018-04-12T18:48:55.517Z,31.58
2018-04-12T18:54:46.181Z,43.69
2018-04-12T19:00:36.870Z,45.09
2018-04-12T19:06:27.538Z,29.92
2018-04-12T19:12:18.168Z,45.49
2018-04-12T19:18:08.944Z,26.52
2018-04-12T19:23:59.523Z,46.73
2018-04-12T19:29:50.193Z,19.83
2018-04-12T19:35:40.857Z,19.2
2018-04-12T19:41:31.603Z,12.63
2018-04-12T19:47:22.186Z,9.15
2018-04-12T19:53:12.891Z,9.15
2018-04-12T19:59:03.601Z,23.42
2018-04-12T20:04:54.208Z,17.23
2018-04-12T20:10:44.904Z,12.91
2018-04-12T20:16:35.553Z,10.29
2018-04-12T20:22:26.226Z,16.42
2018-04-12T20:28:16.883Z,13.04
2018-04-12T20:34:07.600Z,24.35
2018-04-12T20:39:58.211Z,18.7
2018-04-12T20:45:48.921Z,8.91
2018-04-12T20:51:39.526Z,11.59
2018-04-12T20:57:30.179Z,12.38
2018-04-12T21:03:20.891Z,12.88
2018-04-12T21:09:11.496Z,10.36
2018-04-12T21:15:02.302Z,13.59
2018-04-12T21:20:52.814Z,12.52
2018-04-12T21:26:43.486Z,11.73
2018-04-12T21:32:34.155Z,11.52
2018-04-12T21:38:24.817Z,9.9
2018-04-12T21:44:15.519Z,13
2018-04-12T21:50:06.147Z,9.98
2018-04-12T21:55:56.783Z,11.01
2018-04-12T22:01:47.490Z,7.58
2018-04-12T22:07:38.107Z,9.11
2018-04-12T22:13:28.809Z,9.82
2018-04-12T22:19:19.432Z,9.79
2018-04-12T22:25:10.071Z,8.94
2018-04-12T22:31:00.753Z,11.38
2018-04-12T22:36:51.397Z,18.86
2018-04-12T22:42:42.106Z,12.1
2018-04-12T22:48:32.775Z,11.77
2018-04-12T22:54:23.427Z,11.89
2018-04-12T23:00:14.079Z,15.09
2018-04-12T23:06:04.732Z,12.49
2018-04-12T23:11:55.388Z,12.88
2018-04-12T23:17:46.065Z,9.27
2018-04-12T23:23:36.804Z,13.9
2018-04-12T23:29:27.396Z,11.41
2018-04-12T23:35:18.076Z,13.3
2018-04-12T23:41:08.789Z,11.76
2018-04-12T23:46:59.378Z,10.72
2018-04-12T23:52:50.048Z,7.26
2018-04-12T23:58:40.708Z,12
